메인 페이지
METAR-TAF:

METAR-TAF

공항 :

누악쇼트, 모리타니

위도: 18-18-36N, 경도: 015-58-11W, 고도: 3m

현재 날씨관측

예보는 37분 전, 04:00시(UTC)에 발표되었습니다.
북북서12kt
온도 20°C
습도 68%
기압 1011 hPa
시정: 8000m

METAR: GQNO 220400Z 34012KT 8000 NSC 20/14 Q1011 NOSIG

시각: 04:37 (04:37 UTC)

예보

예보는 5 시간 37분 전, 23:00시(UTC)에 발표되었습니다.
예보 대상 시간: 22일 00시부터 23일 06시까지 (UTC)
북북서14kt
시정: 7000m
확률 30% :
일시적
22일 14시부터 22일 18시까지 (UTC)
시정: 4000m
날린먼지

TAF: GQNO 212300Z 2200/2306 34014KT 7000 NSC PROB30 TEMPO 2214/2218 4000 BLDU

4,000개 이상의 공항 관측 자료 및 예보 (METAR 및 TAF 보고).

지도상에서 검색 가능한 기상관측소가 노란 점과 빨간 점으로 표시되어 있습니다.

기상관측소 명을 보려면 표시 위로 마우스를 이동하세요.

날씨 관측과 예보를 보려면 클릭하세요.

지도 변경 : 확대하려면 엑스 표시가 있는 녹색 버튼, 축소하려면 빼기 표시가 있는 녹색 버튼, 다음 페이지의 지도를 보려면 녹색 화살표를 클릭하세요.


METAR-TAF: